createdAt,value
2022-11-04T00:01:12.786Z,6.00
2022-11-04T00:03:40.040Z,5.50
2022-11-04T00:06:07.235Z,6.50
2022-11-04T00:08:33.603Z,7.00
2022-11-04T00:10:59.941Z,6.00
2022-11-04T00:13:26.297Z,6.33
2022-11-04T00:15:53.512Z,7.25
2022-11-04T00:18:20.712Z,6.00
2022-11-04T00:20:47.928Z,6.00
2022-11-04T00:23:14.294Z,6.00
2022-11-04T00:28:12.026Z,7.00
2022-11-04T00:30:38.375Z,5.00
2022-11-04T00:33:04.781Z,7.33
2022-11-04T00:35:31.998Z,6.00
2022-11-04T00:37:58.342Z,6.00
2022-11-04T00:40:24.739Z,6.00
2022-11-04T00:42:51.991Z,6.00
2022-11-04T00:45:18.330Z,6.67
2022-11-04T00:47:44.676Z,6.00
2022-11-04T00:50:11.015Z,5.00
2022-11-04T00:52:37.354Z,4.67
2022-11-04T00:55:03.733Z,7.00
2022-11-04T00:57:30.102Z,7.00
2022-11-04T00:59:56.494Z,4.00
2022-11-04T01:02:23.826Z,6.00
2022-11-04T01:04:50.320Z,6.00
2022-11-04T01:07:16.651Z,6.00
2022-11-04T01:09:42.962Z,5.00
2022-11-04T01:12:09.316Z,4.00
2022-11-04T01:14:36.518Z,6.00
2022-11-04T01:17:02.924Z,6.00
2022-11-04T01:19:30.136Z,6.00
2022-11-04T01:21:56.470Z,5.00
2022-11-04T01:24:25.592Z,6.33
2022-11-04T01:26:52.102Z,6.00
2022-11-04T01:29:19.329Z,7.00
2022-11-04T01:31:45.657Z,4.67
2022-11-04T01:34:12.029Z,5.00
2022-11-04T01:36:38.408Z,7.00
2022-11-04T01:39:04.845Z,6.00
2022-11-04T01:41:31.168Z,5.33
2022-11-04T01:43:57.529Z,5.00
2022-11-04T01:46:23.909Z,6.00
2022-11-04T01:48:50.260Z,5.00
2022-11-04T01:51:17.477Z,5.50
2022-11-04T01:53:43.885Z,7.00
2022-11-04T01:56:10.233Z,6.00
2022-11-04T01:58:36.555Z,4.00
2022-11-04T02:01:03.794Z,6.00
2022-11-04T02:03:30.146Z,6.00
2022-11-04T02:05:56.467Z,5.00
2022-11-04T02:08:22.809Z,5.00
2022-11-04T02:10:49.362Z,5.33
2022-11-04T02:13:15.687Z,5.67
2022-11-04T02:15:42.022Z,5.00
2022-11-04T02:18:09.239Z,5.00
2022-11-04T02:20:35.547Z,5.00
2022-11-04T02:23:01.902Z,4.00
2022-11-04T02:25:28.216Z,3.00
2022-11-04T02:27:54.567Z,5.00
2022-11-04T02:30:21.768Z,6.75
2022-11-04T02:32:48.148Z,6.00
2022-11-04T02:35:14.557Z,5.67
2022-11-04T02:37:40.974Z,4.00
2022-11-04T02:40:07.322Z,5.00
2022-11-04T02:42:33.629Z,4.00
2022-11-04T02:45:00.056Z,6.00
2022-11-04T02:47:26.387Z,5.00
2022-11-04T02:49:52.734Z,4.67
2022-11-04T02:52:19.071Z,5.00
2022-11-04T02:54:45.379Z,5.00
2022-11-04T02:57:11.714Z,5.00
2022-11-04T02:59:38.067Z,6.00
2022-11-04T03:02:04.531Z,4.67
2022-11-04T03:04:30.990Z,4.67
2022-11-04T03:06:57.354Z,5.00
2022-11-04T03:09:23.722Z,5.00
2022-11-04T03:11:50.050Z,4.33
2022-11-04T03:14:16.400Z,4.00
2022-11-04T03:16:42.782Z,5.00
2022-11-04T03:19:09.978Z,4.50
2022-11-04T03:21:36.282Z,5.00
2022-11-04T03:24:02.604Z,5.00
2022-11-04T03:26:28.937Z,4.33
2022-11-04T03:28:55.287Z,4.00
2022-11-04T03:31:21.653Z,5.00
2022-11-04T03:33:47.983Z,5.00
2022-11-04T03:36:14.359Z,5.00
2022-11-04T03:38:40.674Z,5.00
2022-11-04T03:41:07.017Z,5.00
2022-11-04T03:43:33.322Z,4.00
2022-11-04T03:45:59.678Z,6.00
2022-11-04T03:48:26.203Z,5.00
2022-11-04T03:50:52.569Z,5.67
2022-11-04T03:53:18.952Z,5.00
2022-11-04T03:55:45.325Z,4.00
2022-11-04T03:58:12.539Z,5.00
2022-11-04T04:00:38.863Z,5.00
2022-11-04T04:03:05.209Z,5.00
2022-11-04T04:05:31.544Z,4.00
2022-11-04T04:07:57.891Z,4.00
2022-11-04T04:10:24.250Z,5.00
2022-11-04T04:12:50.585Z,4.00
2022-11-04T04:15:17.771Z,5.00
2022-11-04T04:17:44.139Z,5.00
2022-11-04T04:20:10.437Z,5.00
2022-11-04T04:22:36.817Z,4.00
2022-11-04T04:25:03.143Z,5.00
2022-11-04T04:27:29.465Z,3.33
2022-11-04T04:29:55.800Z,4.00
2022-11-04T04:32:22.122Z,4.67
2022-11-04T04:34:48.442Z,4.00
2022-11-04T04:37:14.783Z,5.00
2022-11-04T04:39:41.121Z,4.33
2022-11-04T04:42:07.480Z,4.00
2022-11-04T04:44:33.850Z,5.00
2022-11-04T04:47:00.171Z,5.33
2022-11-04T04:49:26.512Z,5.00
2022-11-04T04:51:52.857Z,4.00
2022-11-04T04:54:19.169Z,5.00
2022-11-04T04:56:45.493Z,5.00
2022-11-04T04:59:11.847Z,4.00
2022-11-04T05:01:38.243Z,4.00
2022-11-04T05:04:04.708Z,4.00
2022-11-04T05:06:31.043Z,4.33
2022-11-04T05:08:57.378Z,4.00
2022-11-04T05:11:24.557Z,6.00
2022-11-04T05:13:52.548Z,6.00
2022-11-04T05:16:19.723Z,5.00
2022-11-04T05:18:46.054Z,6.00
2022-11-04T05:21:12.376Z,5.00
2022-11-04T05:23:38.705Z,6.00
2022-11-04T05:26:05.041Z,6.00
2022-11-04T05:28:31.425Z,5.67
2022-11-04T05:30:57.724Z,5.00
2022-11-04T05:33:25.939Z,7.40
2022-11-04T05:35:52.275Z,5.00
2022-11-04T05:38:18.618Z,7.00
2022-11-04T05:40:45.002Z,5.00
2022-11-04T05:43:11.648Z,6.00
2022-11-04T05:45:38.940Z,4.25
2022-11-04T05:48:05.322Z,6.00
2022-11-04T05:50:31.660Z,6.00
2022-11-04T05:52:58.865Z,4.00
2022-11-04T05:55:25.196Z,4.00
2022-11-04T05:57:51.567Z,5.33
2022-11-04T06:00:18.756Z,6.00
2022-11-04T06:02:45.188Z,6.67
2022-11-04T06:05:11.665Z,8.00
2022-11-04T06:07:38.013Z,7.00
2022-11-04T06:10:04.377Z,6.00
2022-11-04T06:12:30.719Z,6.00
2022-11-04T06:14:57.074Z,6.00
2022-11-04T06:17:23.398Z,4.00
2022-11-04T06:19:49.727Z,5.00
2022-11-04T06:22:16.040Z,4.33
2022-11-04T06:24:42.363Z,4.33
2022-11-04T06:27:08.765Z,6.00
2022-11-04T06:29:36.220Z,6.75
2022-11-04T06:32:03.447Z,6.00
2022-11-04T06:34:30.658Z,7.00
2022-11-04T06:36:57.880Z,7.50
2022-11-04T06:39:26.998Z,6.17
2022-11-04T06:41:54.540Z,5.67
2022-11-04T06:44:22.908Z,6.33
2022-11-04T06:46:49.294Z,5.00
2022-11-04T06:49:15.966Z,6.00
2022-11-04T06:51:42.596Z,6.00
2022-11-04T06:54:10.044Z,4.50
2022-11-04T06:56:36.730Z,5.00
2022-11-04T06:59:03.041Z,7.00
2022-11-04T07:01:29.581Z,6.50
2022-11-04T07:03:56.008Z,5.67
2022-11-04T07:06:22.415Z,7.00
2022-11-04T07:08:49.628Z,6.00
2022-11-04T07:11:15.968Z,5.00
2022-11-04T07:13:42.322Z,5.00
2022-11-04T07:16:08.697Z,6.50
2022-11-04T07:18:35.085Z,6.00
2022-11-04T07:21:05.745Z,6.00
2022-11-04T07:23:35.983Z,5.00
2022-11-04T07:26:02.302Z,5.00
2022-11-04T07:28:28.678Z,6.00
2022-11-04T07:30:55.017Z,5.33
2022-11-04T07:33:21.349Z,5.00
2022-11-04T07:35:47.668Z,4.67
2022-11-04T07:38:14.004Z,4.00
2022-11-04T07:40:40.344Z,4.00
2022-11-04T07:43:06.692Z,5.00
2022-11-04T07:45:33.014Z,5.33
2022-11-04T07:47:59.332Z,4.33
2022-11-04T07:50:25.814Z,4.33
2022-11-04T07:52:53.101Z,6.00
2022-11-04T07:55:19.461Z,5.00
2022-11-04T07:57:46.677Z,6.00
2022-11-04T08:00:13.046Z,7.00
2022-11-04T08:02:40.402Z,6.50
2022-11-04T08:05:06.899Z,5.00
2022-11-04T08:07:34.106Z,5.75
2022-11-04T08:10:00.524Z,7.00
2022-11-04T08:12:28.779Z,6.80
2022-11-04T08:14:55.995Z,5.25
2022-11-04T08:17:25.153Z,6.50
2022-11-04T08:19:52.407Z,8.00
2022-11-04T08:22:18.865Z,7.00
2022-11-04T08:24:45.351Z,8.00
2022-11-04T08:27:12.642Z,11.33
2022-11-04T08:29:39.061Z,11.00
2022-11-04T08:32:05.556Z,11.00
2022-11-04T08:34:32.829Z,14.00
2022-11-04T08:37:01.097Z,9.60
2022-11-04T08:39:29.338Z,7.40
2022-11-04T08:41:58.468Z,7.17
2022-11-04T08:44:26.745Z,7.80
2022-11-04T08:46:55.918Z,9.33
2022-11-04T08:49:22.385Z,9.00
2022-11-04T08:51:48.824Z,8.50
2022-11-04T08:54:17.090Z,8.20
2022-11-04T08:56:45.382Z,9.60
2022-11-04T08:59:13.665Z,8.80
2022-11-04T09:01:41.977Z,7.40
2022-11-04T09:04:08.452Z,6.00
2022-11-04T09:06:35.723Z,6.50
2022-11-04T09:09:02.982Z,6.75
2022-11-04T09:11:29.317Z,7.00
2022-11-04T09:13:55.792Z,7.00
2022-11-04T09:16:22.141Z,4.00
2022-11-04T09:18:49.345Z,7.00
2022-11-04T09:21:15.795Z,2.67
2022-11-04T09:23:42.986Z,5.00
2022-11-04T09:26:10.222Z,6.00
2022-11-04T09:28:36.558Z,5.33
2022-11-04T09:31:02.954Z,6.00
2022-11-04T09:33:29.349Z,6.00
2022-11-04T09:35:55.666Z,6.00
2022-11-04T09:38:22.034Z,5.00
2022-11-04T09:40:48.368Z,5.33
2022-11-04T09:43:15.574Z,6.00
2022-11-04T09:45:42.037Z,6.33
2022-11-04T09:48:08.380Z,6.00
2022-11-04T09:50:34.726Z,5.00
2022-11-04T09:53:01.043Z,5.00
2022-11-04T09:55:27.355Z,6.00
2022-11-04T09:57:53.745Z,5.00
2022-11-04T10:00:23.289Z,5.50
2022-11-04T10:02:49.622Z,5.00
2022-11-04T10:05:16.034Z,6.00
2022-11-04T10:07:42.378Z,6.67
2022-11-04T10:10:08.725Z,5.00
2022-11-04T10:12:35.023Z,5.00
2022-11-04T10:15:01.348Z,6.00
2022-11-04T10:17:28.549Z,6.00
2022-11-04T10:19:54.921Z,6.33
2022-11-04T10:22:22.167Z,5.00
2022-11-04T10:24:49.424Z,5.00
2022-11-04T10:27:15.748Z,6.00
2022-11-04T10:29:42.088Z,4.00
2022-11-04T10:32:08.437Z,5.00
2022-11-04T10:34:34.766Z,6.00
2022-11-04T10:37:01.974Z,6.00
2022-11-04T10:39:28.302Z,5.00
2022-11-04T10:41:54.661Z,4.67
2022-11-04T10:44:21.841Z,6.00
2022-11-04T10:46:48.212Z,6.00
2022-11-04T10:49:14.553Z,3.00
2022-11-04T10:51:40.889Z,6.00
2022-11-04T10:54:07.302Z,5.00
2022-11-04T10:56:33.711Z,4.67
2022-11-04T10:59:00.051Z,5.00
2022-11-04T11:01:26.656Z,7.00
2022-11-04T11:03:53.985Z,6.75
2022-11-04T11:06:21.337Z,6.00
2022-11-04T11:08:47.741Z,7.00
2022-11-04T11:11:14.221Z,10.00
2022-11-04T11:13:43.383Z,8.50
2022-11-04T11:16:11.626Z,7.60
2022-11-04T11:18:38.045Z,8.00
2022-11-04T11:21:04.450Z,6.50
2022-11-04T11:23:30.899Z,7.00
2022-11-04T11:25:57.329Z,7.00
2022-11-04T11:28:23.757Z,7.50
2022-11-04T11:30:52.018Z,8.00
2022-11-04T11:33:18.434Z,7.50
2022-11-04T11:35:44.817Z,8.00
2022-11-04T11:38:11.220Z,8.50
2022-11-04T11:40:47.588Z,5.25
2022-11-04T11:43:23.840Z,6.00
2022-11-04T11:45:50.244Z,8.00
2022-11-04T11:48:16.714Z,8.00
2022-11-04T11:50:43.171Z,8.00
2022-11-04T11:53:10.767Z,9.33
2022-11-04T11:55:40.217Z,8.17
2022-11-04T12:01:02.076Z,10.60
2022-11-04T12:06:23.540Z,8.00
2022-11-04T12:11:40.093Z,9.40
2022-11-04T12:14:07.329Z,10.00
2022-11-04T12:16:35.621Z,10.20
2022-11-04T12:19:02.102Z,10.00
2022-11-04T12:21:29.361Z,10.33
2022-11-04T12:23:55.886Z,10.00
2022-11-04T12:26:24.165Z,10.80
2022-11-04T12:28:50.637Z,8.00
2022-11-04T12:31:18.930Z,11.00
2022-11-04T12:33:47.204Z,10.40
2022-11-04T12:36:13.664Z,10.00
2022-11-04T12:38:40.883Z,12.00
2022-11-04T12:43:54.488Z,11.00
2022-11-04T12:46:22.139Z,9.33
2022-11-04T12:48:54.352Z,9.00
2022-11-04T12:51:25.579Z,10.00
2022-11-04T12:53:51.997Z,11.00
2022-11-04T12:56:19.248Z,11.67
2022-11-04T12:58:47.535Z,10.40
2022-11-04T13:01:15.959Z,8.60
2022-11-04T13:03:42.579Z,8.50
2022-11-04T13:06:10.924Z,10.00
2022-11-04T13:08:37.353Z,9.00
2022-11-04T13:11:03.825Z,8.00
2022-11-04T13:13:32.170Z,9.60
2022-11-04T13:15:58.602Z,9.00
2022-11-04T13:18:25.078Z,10.00
2022-11-04T13:20:53.350Z,8.00
2022-11-04T13:23:19.809Z,10.00
2022-11-04T13:25:48.089Z,9.00
2022-11-04T13:28:14.529Z,9.00
2022-11-04T13:30:41.011Z,8.00
2022-11-04T13:33:07.730Z,9.00
2022-11-04T13:35:34.411Z,11.00
2022-11-04T13:38:00.893Z,9.50
2022-11-04T13:40:30.094Z,8.83
2022-11-04T13:42:56.510Z,8.00
2022-11-04T13:45:22.937Z,9.00
2022-11-04T13:47:49.287Z,6.33
2022-11-04T13:50:17.606Z,9.80
2022-11-04T13:52:47.408Z,11.00
2022-11-04T13:55:17.149Z,11.00
2022-11-04T13:57:44.408Z,10.67
2022-11-04T14:00:10.824Z,10.50
2022-11-04T14:02:37.249Z,6.00
2022-11-04T14:05:04.535Z,6.25
2022-11-04T14:07:33.695Z,7.50
2022-11-04T14:10:00.153Z,10.00
2022-11-04T14:12:27.418Z,10.00
2022-11-04T14:14:55.723Z,10.00
2022-11-04T14:17:24.072Z,9.80
2022-11-04T14:19:50.528Z,11.00
2022-11-04T14:22:17.751Z,10.00
2022-11-04T14:24:44.248Z,11.00
2022-11-04T14:27:13.400Z,6.83
2022-11-04T14:29:41.015Z,11.00
2022-11-04T14:32:07.670Z,9.50
2022-11-04T14:34:34.936Z,11.33
2022-11-04T14:37:02.164Z,11.00
2022-11-04T14:39:28.572Z,11.00
2022-11-04T14:41:54.991Z,10.00
2022-11-04T14:44:22.467Z,9.67
2022-11-04T14:46:49.690Z,11.00
2022-11-04T14:49:18.847Z,9.50
2022-11-04T14:51:46.141Z,12.00
2022-11-04T14:54:13.479Z,9.67
2022-11-04T14:56:40.761Z,11.00
2022-11-04T14:59:07.256Z,10.00
2022-11-04T15:01:35.794Z,11.00
2022-11-04T15:04:12.096Z,11.50
2022-11-04T15:06:54.402Z,12.00
2022-11-04T15:09:21.432Z,11.00
2022-11-04T15:11:47.991Z,12.00
2022-11-04T15:14:14.405Z,11.00
2022-11-04T15:16:41.667Z,10.67
2022-11-04T15:19:08.910Z,10.00
2022-11-04T15:21:37.606Z,12.00
2022-11-04T15:24:05.943Z,11.40
2022-11-04T15:26:33.177Z,11.00
2022-11-04T15:29:00.430Z,11.00
2022-11-04T15:31:27.698Z,12.33
2022-11-04T15:33:56.054Z,11.40
2022-11-04T15:36:23.321Z,12.33
2022-11-04T15:38:49.765Z,11.00
2022-11-04T15:41:16.167Z,11.50
2022-11-04T15:43:43.412Z,11.67
2022-11-04T15:46:09.865Z,8.00
2022-11-04T15:48:36.315Z,12.00
2022-11-04T15:51:03.578Z,12.00
2022-11-04T15:53:30.919Z,12.33
2022-11-04T15:55:58.175Z,12.00
2022-11-04T15:58:25.384Z,12.00
2022-11-04T16:00:51.835Z,12.00
2022-11-04T16:03:19.107Z,11.00
2022-11-04T16:05:46.499Z,12.00
2022-11-04T16:08:13.863Z,11.33
2022-11-04T16:10:41.241Z,10.67
2022-11-04T16:13:08.878Z,13.33
2022-11-04T16:15:36.414Z,12.00
2022-11-04T16:18:02.836Z,13.00
2022-11-04T16:20:29.263Z,11.00
2022-11-04T16:22:56.515Z,11.33
2022-11-04T16:25:23.758Z,11.67
2022-11-04T16:27:51.001Z,10.00
2022-11-04T16:30:18.294Z,12.00
2022-11-04T16:32:45.641Z,14.00
2022-11-04T16:35:12.076Z,12.00
2022-11-04T16:37:39.397Z,13.00
2022-11-04T16:40:06.756Z,13.33
2022-11-04T16:42:33.234Z,12.00
2022-11-04T16:45:01.552Z,11.00
2022-11-04T16:47:28.768Z,10.33
2022-11-04T16:49:56.015Z,10.33
2022-11-04T16:52:23.246Z,10.67
2022-11-04T16:54:49.654Z,10.50
2022-11-04T16:57:17.993Z,11.60
2022-11-04T16:59:44.420Z,7.00
2022-11-04T17:02:12.840Z,10.00
2022-11-04T17:04:39.390Z,15.50
2022-11-04T17:07:05.823Z,10.00
2022-11-04T17:09:33.144Z,13.67
2022-11-04T17:12:00.551Z,10.00
2022-11-04T17:14:27.829Z,11.00
2022-11-04T17:17:02.329Z,10.33
2022-11-04T17:19:34.403Z,9.60
2022-11-04T17:22:02.122Z,11.67
2022-11-04T17:24:29.486Z,12.33
2022-11-04T17:26:56.831Z,12.33
2022-11-04T17:29:24.187Z,11.67
2022-11-04T17:31:51.425Z,11.67
2022-11-04T17:34:18.744Z,11.67
2022-11-04T17:36:47.027Z,10.40
2022-11-04T17:39:14.306Z,11.67
2022-11-04T17:41:41.552Z,11.67
2022-11-04T17:44:09.859Z,11.40
2022-11-04T17:46:36.271Z,10.00
2022-11-04T17:49:02.751Z,9.00
2022-11-04T17:51:30.059Z,15.33
2022-11-04T17:53:57.333Z,11.33
2022-11-04T17:56:23.827Z,10.00
2022-11-04T17:58:50.468Z,12.00
2022-11-04T18:01:17.309Z,10.00
2022-11-04T18:03:44.712Z,12.33
2022-11-04T18:06:12.047Z,17.33
2022-11-04T18:08:38.543Z,15.50
2022-11-04T18:11:04.970Z,11.50
2022-11-04T18:13:31.396Z,13.00
2022-11-04T18:15:57.865Z,13.50
2022-11-04T18:18:25.269Z,12.67
2022-11-04T18:20:52.686Z,13.00
2022-11-04T18:23:19.976Z,11.67
2022-11-04T18:25:50.704Z,15.00
2022-11-04T18:28:17.361Z,13.00
2022-11-04T18:30:44.779Z,11.67
2022-11-04T18:33:12.279Z,11.67
2022-11-04T18:35:39.903Z,11.33
2022-11-04T18:38:07.275Z,13.67
2022-11-04T18:40:33.677Z,12.00
2022-11-04T18:43:03.292Z,15.50
2022-11-04T18:45:34.924Z,12.00
2022-11-04T18:48:02.346Z,11.00
2022-11-04T18:50:28.762Z,12.00
2022-11-04T18:52:56.009Z,7.50
2022-11-04T18:55:23.399Z,16.67
2022-11-04T18:57:50.685Z,11.00
2022-11-04T19:00:17.539Z,10.50
2022-11-04T19:02:44.079Z,8.00
2022-11-04T19:05:13.328Z,7.33
2022-11-04T19:07:42.511Z,7.83
2022-11-04T19:10:09.970Z,10.33
2022-11-04T19:12:36.426Z,15.00
2022-11-04T19:15:02.825Z,11.00
2022-11-04T19:17:29.294Z,10.00
2022-11-04T19:19:55.642Z,6.00
2022-11-04T19:22:23.920Z,8.40
2022-11-04T19:24:50.315Z,8.00
2022-11-04T19:27:17.540Z,6.25
2022-11-04T19:29:43.901Z,6.00
2022-11-04T19:32:14.342Z,5.50
2022-11-04T19:34:41.017Z,6.00
2022-11-04T19:37:07.463Z,6.00
2022-11-04T19:39:33.860Z,6.00
2022-11-04T19:42:01.295Z,7.00
2022-11-04T19:44:27.660Z,6.00
2022-11-04T19:46:54.016Z,6.00
2022-11-04T19:49:20.356Z,4.33
2022-11-04T19:51:46.827Z,17.50
2022-11-04T19:54:14.101Z,10.00
2022-11-04T19:56:40.586Z,9.50
2022-11-04T19:59:10.155Z,9.50
2022-11-04T20:01:36.726Z,8.00
2022-11-04T20:04:03.298Z,21.00
2022-11-04T20:06:29.773Z,12.50
2022-11-04T20:08:56.211Z,12.00
2022-11-04T20:11:24.564Z,10.40
2022-11-04T20:13:51.835Z,10.67
2022-11-04T20:16:20.161Z,8.60
2022-11-04T20:18:46.597Z,10.00
2022-11-04T20:21:14.899Z,9.20
2022-11-04T20:23:41.249Z,5.67
2022-11-04T20:26:07.851Z,7.00
2022-11-04T20:28:34.210Z,6.00
2022-11-04T20:31:03.331Z,6.83
2022-11-04T20:33:29.847Z,9.00
2022-11-04T20:35:57.121Z,6.50
2022-11-04T20:38:23.824Z,9.00
2022-11-04T20:40:50.176Z,6.00
2022-11-04T20:43:16.565Z,5.33
2022-11-04T20:45:44.998Z,6.00
2022-11-04T20:48:15.803Z,6.00
2022-11-04T20:50:43.138Z,6.00
2022-11-04T20:53:10.466Z,6.00
2022-11-04T20:55:36.941Z,6.00
2022-11-04T20:58:03.453Z,6.00
2022-11-04T21:00:29.878Z,8.00
2022-11-04T21:02:56.262Z,6.00
2022-11-04T21:05:22.631Z,6.00
2022-11-04T21:07:49.872Z,6.00
2022-11-04T21:10:17.096Z,4.50
2022-11-04T21:12:43.481Z,6.00
2022-11-04T21:15:10.728Z,6.50
2022-11-04T21:17:40.099Z,7.00
2022-11-04T21:20:06.772Z,6.00
2022-11-04T21:22:33.982Z,7.00
2022-11-04T21:25:00.343Z,7.00
2022-11-04T21:27:26.698Z,5.67
2022-11-04T21:29:53.044Z,5.67
2022-11-04T21:32:19.395Z,5.33
2022-11-04T21:34:45.745Z,6.00
2022-11-04T21:37:13.070Z,6.00
2022-11-04T21:39:39.346Z,5.00
2022-11-04T21:42:05.728Z,6.00
2022-11-04T21:44:32.067Z,5.67
2022-11-04T21:46:59.276Z,4.50
2022-11-04T21:49:25.642Z,3.00
2022-11-04T21:51:52.020Z,6.00
2022-11-04T21:54:19.793Z,6.00
2022-11-04T21:56:46.180Z,5.00
2022-11-04T21:59:17.971Z,6.00
2022-11-04T22:01:44.926Z,6.00
2022-11-04T22:04:11.385Z,6.00
2022-11-04T22:06:38.588Z,6.00
2022-11-04T22:09:04.968Z,6.67
2022-11-04T22:11:31.326Z,6.00
2022-11-04T22:13:57.667Z,5.00
2022-11-04T22:16:24.021Z,6.00
2022-11-04T22:18:50.372Z,6.00
2022-11-04T22:21:16.786Z,5.33
2022-11-04T22:23:44.074Z,7.00
2022-11-04T22:26:11.266Z,6.25
2022-11-04T22:28:37.627Z,6.00
2022-11-04T22:31:04.098Z,7.00
2022-11-04T22:33:32.035Z,5.75
2022-11-04T22:35:58.512Z,6.00
2022-11-04T22:38:24.887Z,7.50
2022-11-04T22:40:52.097Z,7.75
2022-11-04T22:43:18.520Z,6.00
2022-11-04T22:45:44.931Z,6.00
2022-11-04T22:48:11.387Z,6.00
2022-11-04T22:50:37.766Z,5.00
2022-11-04T22:53:04.163Z,6.00
2022-11-04T22:55:30.541Z,5.00
2022-11-04T22:57:56.894Z,6.33
2022-11-04T23:00:24.106Z,6.00
2022-11-04T23:02:50.576Z,6.00
2022-11-04T23:05:17.980Z,6.75
2022-11-04T23:07:44.308Z,5.00
2022-11-04T23:10:11.577Z,5.00
2022-11-04T23:12:38.819Z,7.00
2022-11-04T23:15:05.174Z,6.00
2022-11-04T23:17:34.286Z,6.67
2022-11-04T23:20:03.403Z,5.33
2022-11-04T23:22:29.862Z,6.50
2022-11-04T23:24:57.411Z,5.75
2022-11-04T23:27:23.824Z,6.00
2022-11-04T23:29:50.213Z,7.00
2022-11-04T23:32:16.571Z,6.33
2022-11-04T23:34:43.008Z,6.50
2022-11-04T23:37:10.300Z,7.00
2022-11-04T23:39:36.790Z,6.00
2022-11-04T23:42:03.192Z,7.00
2022-11-04T23:44:30.766Z,7.00
2022-11-04T23:46:57.191Z,5.50
2022-11-04T23:49:23.619Z,7.00
2022-11-04T23:51:50.808Z,6.00
2022-11-04T23:54:17.214Z,7.00
2022-11-04T23:56:44.511Z,6.00
2022-11-04T23:59:12.893Z,7.00
